Archival Weather

Snohomish County (Paine Fld)

Everett, Washington (KPAE)

Report from: Thursday, November 2, 2023 5:11 AM PDT
Current time: Sunday, June 16, 2024 11:35 PM PDT

Current weather – Weather history – Daily summaries
Weather forecast

Present weatherLight rain, mist
Temperature11.7°C (53.1°F)
Dew point10.0°C (50.0°F)
Winds 9 kts (4.6 m/s, 10.4 mph) South-Southeast (150°)
Visibility5 mi. (8 km)
Clouds Ceiling: Overcast 400 ft. (122 m)
Altimeter29.72 in.Hg (1006 mB)
Precipitiation0.01 in. (0 mm)
Relative humidity89 %
Density altitude12 ft. (4 m)
Remarks Fully automated report
System requires maintenance
Automated weather observing station with precipitation discriminator
Ceiling
Flight conditions Low Instrument Meteorological Conditions
Raw dataKPAE 021211Z AUTO 15009KT 5SM -RA BR OVC004 12/10 A2972 RMK AO2 CIG 003V010 P0001 T01170100 $
An error has occurred. This application may no longer respond until reloaded. Reload 🗙